Metar Report
Metar
METAR KULS 201256Z AUTO 28008KT 10SM CLR 00/M01 A3038 A02 1635
METAR KULS 201156Z AUTO 28008KT 10SM CLR 01/M01 A3037 A02 1634
METAR KULS 201056Z AUTO 27007KT 10SM CLR 00/M01 A3036 A02 1633
METAR KULS 200956Z AUTO 28007KT 10SM CLR 02/M01 A3035 A02 1632
METAR KULS 200856Z AUTO 28007KT 10SM CLR 02/00 A3035 A02 1631
METAR KULS 200756Z AUTO 27003KT 10SM CLR 02/00 A3034 A02 1630
METAR KULS 200656Z AUTO 33004KT 10SM CLR 03/00 A3034 A02 1629
METAR KULS 200556Z AUTO 33005KT 10SM CLR 04/01 A3033 A02 1628
METAR KULS 200456Z AUTO 34007KT 10SM CLR 06/02 A3031 A02 1627
METAR KULS 200356Z AUTO 34008KT 10SM CLR 06/03 A3030 A02 1626
METAR KULS 200256Z AUTO 34007KT 10SM CLR 07/03 A3028 A02 1625
METAR KULS 200156Z AUTO 34007KT 10SM CLR 09/04 A3026 A02 1624
METAR KULS 200056Z AUTO 34006KT 10SM CLR 10/03 A3023 A02 1623
METAR KULS 192356Z AUTO 35008KT 10SM CLR 15/03 A3019 A02 1622
METAR KULS 192256Z AUTO 35010KT 10SM CLR 21/03 A3017 A02 1621
METAR KULS 192156Z AUTO 33012KT 10SM CLR 21/02 A3016 A02 1620
METAR KULS 192056Z AUTO 33014G19KT 10SM CLR 22/03 A3015 A02 1619
METAR KULS 191956Z AUTO 32008KT 10SM CLR 21/05 A3016 A02 1618
METAR KULS 191856Z AUTO 34011KT 10SM CLR 21/06 A3018 A02 1617
METAR KULS 191756Z AUTO 35011KT 10SM CLR 18/08 A3019 A02 1616
METAR KULS 191656Z AUTO 33011G19KT 10SM CLR 14/05 A3019 A02 1615
METAR KULS 191556Z AUTO 30012G18KT 10SM CLR 13/06 A3019 A02 1614
METAR KULS 191456Z AUTO 30011KT 10SM CLR 07/05 A3018 A02 1613
METAR KULS 191356Z AUTO 29010KT 10SM CLR 04/03 A3016 A02 1612
METAR KULS 191256Z AUTO 28011KT 10SM CLR 02/02 A3013 A02 1611
METAR KULS 191156Z AUTO 26006KT 10SM CLR 02/02 A3012 A02 1610
METAR KULS 191056Z AUTO 18005KT 10SM CLR 03/03 A3012 A02 1609
METAR KULS 190956Z AUTO 17006KT 10SM CLR 04/03 A3012 A02 1608
METAR KULS 190856Z AUTO 18004KT 10SM CLR 04/04 A3012 A02 1607
METAR KULS 190756Z AUTO 17010KT 10SM CLR 07/06 A3013 A02 1606
METAR KULS 190656Z AUTO 18011G21KT 10SM OVC016 07/06 A3015 A02 1605
METAR KULS 190556Z AUTO 18010KT 10SM OVC016 07/06 A3016 A02 1604
METAR KULS 190456Z AUTO 16013KT 10SM OVC022 07/07 A3018 A02 1603
METAR KULS 190356Z AUTO 16011KT 10SM SCT009 OVC022 07/07 A3020 A02 1602
METAR KULS 190256Z AUTO 17011KT 10SM OVC016 07/07 A3022 A02 1601
METAR KULS 190156Z AUTO 16013G17KT 10SM OVC011 07/07 A3024 A02 1600
METAR KULS 190056Z AUTO 18010KT 10SM -RA BKN007 OVC011 07/07 A3025 A02 1599
METAR KULS 182356Z AUTO 15010KT 10SM -RA SCT004 BKN018 OVC050 07/07 A3025 A02 1598
METAR KULS 182256Z AUTO 16008KT 7SM -RA OVC009 08/07 A3027 A02 1597
METAR KULS 182156Z AUTO 16013G17KT 10SM -RA BKN017 09/07 A3030 A02 1596
METAR KULS 182056Z AUTO 18012KT 10SM SCT021 OVC028 10/07 A3031 A02 1595
METAR KULS 181956Z AUTO 17014G19KT 10SM BKN030 BKN037 11/06 A3033 A02 1594
METAR KULS 181856Z AUTO 18016G20KT 10SM SCT036 13/06 A3036 A02 1593
METAR KULS 181756Z AUTO 17016G20KT 10SM SCT032 SCT048 12/05 A3039 A02 1592
METAR KULS 181656Z AUTO 15011KT 10SM SCT003 10/06 A3040 A02 1591
METAR KULS 181556Z AUTO 16008KT 10SM BKN050 10/05 A3043 A02 1590
METAR KULS 181456Z AUTO 13006KT 10SM BKN050 10/07 A3042 A02 1589
METAR KULS 181356Z AUTO 13004KT 10SM SCT050 SCT110 07/06 A3042 A02 1588
METAR KULS 181256Z AUTO 00000KT 10SM SCT050 06/04 A3041 A02 1587
METAR KULS 181156Z AUTO 15004KT 10SM BKN055 07/06 A3041 A02 1586
METAR KULS 181056Z AUTO 17004KT 10SM OVC065 07/05 A3042 A02 1585
METAR KULS 180956Z AUTO 16003KT 10SM BKN065 BKN080 07/05 A3042 A02 1584
METAR KULS 180856Z AUTO 16003KT 10SM SCT090 SCT110 07/04 A3042 A02 1583
METAR KULS 180756Z AUTO 13003KT 10SM CLR 07/04 A3044 A02 1582
METAR KULS 180656Z AUTO 14004KT 10SM CLR 07/04 A3045 A02 1581
METAR KULS 180556Z AUTO 15005KT 10SM CLR 07/03 A3045 A02 1580
METAR KULS 180456Z AUTO 14007KT 10SM CLR 08/03 A3046 A02 1579
METAR KULS 180356Z AUTO 15007KT 10SM SCT075 08/03 A3046 A02 1578
METAR KULS 180256Z AUTO 13007KT 10SM CLR 08/02 A3046 A02 1577
METAR KULS 180156Z AUTO 13005KT 10SM CLR 10/03 A3045 A02 1576
METAR KULS 180056Z AUTO 13005KT 10SM CLR 10/03 A3045 A02 1575
METAR KULS 172356Z AUTO 11005KT 10SM CLR 13/03 A3043 A02 1574
METAR KULS 172256Z AUTO 10008KT 10SM CLR 14/02 A3042 A02 1573
METAR KULS 172156Z AUTO 12006KT 10SM CLR 16/02 A3043 A02 1572
METAR KULS 172056Z AUTO 10007KT 10SM CLR 16/02 A3043 A02 1571
METAR KULS 171956Z AUTO 13011KT 10SM CLR 17/03 A3044 A02 1570
METAR KULS 171856Z AUTO 12009KT 10SM CLR 16/02 A3046 A02 1569
METAR KULS 171756Z AUTO 11011G15KT 10SM CLR 16/02 A3048 A02 1568
METAR KULS 171656Z AUTO 05003KT 1SM HZ VV007 12/04 A3049 A02 1567
METAR KULS 171556Z AUTO 03006KT 10SM CLR 08/03 A3049 A02 1566
METAR KULS 171456Z AUTO 01004KT 10SM CLR 06/02 A3049 A02 1565
METAR KULS 171356Z AUTO 30004KT 10SM CLR 02/01 A3047 A02 1564
METAR KULS 171256Z AUTO 29006KT 10SM CLR 01/M01 A3045 A02 1563
METAR KULS 171156Z AUTO 28005KT 10SM CLR 00/M01 A3043 A02 1562
METAR KULS 171056Z AUTO 30006KT 10SM CLR 00/M01 A3041 A02 1561
METAR KULS 170956Z AUTO 28004KT 10SM CLR 00/M01 A3041 A02 1560
METAR KULS 170856Z AUTO 30005KT 10SM CLR 00/M01 A3040 A02 1559
METAR KULS 170756Z AUTO 29006KT 10SM CLR 00/M01 A3039 A02 1558
METAR KULS 170656Z AUTO 30006KT 10SM CLR 02/00 A3039 A02 1557
METAR KULS 170556Z AUTO 29004KT 10SM CLR 00/M01 A3039 A02 1556
METAR KULS 170456Z AUTO 28003KT 10SM CLR 02/00 A3037 A02 1555
METAR KULS 170356Z AUTO 33005KT 10SM CLR 03/00 A3036 A02 1554
METAR KULS 170256Z AUTO 34005KT 10SM CLR 04/01 A3034 A02 1553
METAR KULS 170156Z AUTO 35006KT 10SM CLR 07/02 A3032 A02 1552
METAR KULS 170056Z AUTO 01003KT 10SM CLR 10/02 A3030 A02 1551
METAR KULS 162356Z AUTO 36004KT 10SM CLR 11/02 A3029 A02 1550
METAR KULS 162256Z AUTO 35010KT 10SM CLR 14/01 A3027 A02 1549
METAR KULS 162156Z AUTO 35010KT 10SM CLR 16/01 A3026 A02 1548
METAR KULS 162056Z AUTO 35009KT 10SM CLR 16/01 A3027 A02 1547
METAR KULS 161956Z AUTO 32010KT 10SM CLR 14/M01 A3027 A02 1546
METAR KULS 161856Z AUTO 33008G14KT 10SM CLR 13/M01 A3031 A02 1545
METAR KULS 161756Z AUTO 35008KT 10SM CLR 12/M01 A3034 A02 1544
METAR KULS 161656Z AUTO 29008G14KT 10SM CLR 10/M01 A3035 A02 1543
METAR KULS 161556Z AUTO 29012KT 10SM CLR 07/M01 A3035 A02 1542
METAR KULS 161456Z AUTO 29012KT 10SM CLR 02/M02 A3036 A02 1541
METAR KULS 161356Z AUTO 29010KT 10SM CLR M01/M03 A3034 A02 1540
METAR KULS 161312Z AUTO 29009KT 10SM CLR M03/M04 A3032 A02 1539
METAR KULS 141756Z AUTO 36018G27KT 10SM BKN017 BKN023 OVC038 M01/M03 A3019 A02 1538
METAR KULS 141656Z AUTO 35018G24KT 7SM SCT009 BKN014 BKN023 M01/M02 A3017 A02 1537
METAR KULS 141556Z AUTO 35018G25KT 4SM BR BKN009 OVC016 M01/M02 A3016 A02 1536
METAR KULS 141456Z AUTO 35022G25KT 7SM BKN010 OVC015 M01/M02 A3013 A02 1535
METAR KULS 141356Z AUTO 35019G27KT 5SM BR SCT004 OVC016 M01/M02 A3010 A02 1534
METAR KULS 141256Z AUTO 36025G42KT 7SM SCT014 OVC021 M01/M02 A3003 A02 1533
METAR KULS 141156Z AUTO 35027G35KT 7SM OVC012 M01/M01 A2998 A02 1532
METAR KULS 141056Z AUTO 35031G39KT 4SM -RA OVC012 02/01 A2990 A02 1531
METAR KULS 140956Z AUTO 36024G29KT 4SM -RA BKN004 OVC013 08/08 A2982 A02 1530
METAR KULS 140856Z AUTO 05006KT 4SM BR BKN002 OVC006 09/08 A2976 A02 1529
METAR KULS 140756Z AUTO 08006KT 1 1/2SM DZ OVC002 10/10 A2973 A02 1528
METAR KULS 140656Z AUTO 10008KT 1 3/4SM BR OVC002 10/10 A2970 A02 1527
METAR KULS 140556Z AUTO 14011KT 1 1/2SM BR OVC002 10/10 A2970 A02 1526
METAR KULS 140456Z AUTO 15016G19KT 1 3/4SM -RA OVC002 10/09 A2971 A02 1525
METAR KULS 140356Z AUTO 15017G22KT 10SM OVC004 10/09 A2972 A02 1524
METAR KULS 140256Z AUTO 13013KT 10SM CLR 10/09 A2972 A02 1523
METAR KULS 140156Z AUTO 13014KT 10SM CLR 11/09 A2971 A02 1522
METAR KULS 140056Z AUTO 14013KT 10SM CLR 13/10 A2969 A02 1521
METAR KULS 132356Z AUTO 13013KT 10SM CLR 14/10 A2967 A02 1520
METAR KULS 132256Z AUTO 14013G18KT 10SM CLR 17/11 A2967 A02 1519
METAR KULS 132156Z AUTO 15013KT 10SM SCT033 18/12 A2968 A02 1518
METAR KULS 132056Z AUTO 16017G21KT 10SM SCT032 18/11 A2969 A02 1517
METAR KULS 131956Z AUTO 16016G22KT 10SM SCT032 18/12 A2971 A02 1516
METAR KULS 131856Z AUTO 17015G20KT 10SM BKN026 BKN031 14/09 A2976 A02 1515